sensor_id;sensor_type;location;lat;lon;timestamp;temperature;humidity
9167;DHT22;4618;48.818;9.088;2023-05-16T00:00:16;12.40;44.50
9167;DHT22;4618;48.818;9.088;2023-05-16T00:02:41;12.40;1.00
9167;DHT22;4618;48.818;9.088;2023-05-16T00:05:07;12.30;1.00
9167;DHT22;4618;48.818;9.088;2023-05-16T00:07:34;12.30;1.00
9167;DHT22;4618;48.818;9.088;2023-05-16T00:10:00;12.30;1.00
9167;DHT22;4618;48.818;9.088;2023-05-16T00:12:26;12.30;1.00
9167;DHT22;4618;48.818;9.088;2023-05-16T00:14:52;12.30;1.00
9167;DHT22;4618;48.818;9.088;2023-05-16T00:17:18;12.20;1.00
9167;DHT22;4618;48.818;9.088;2023-05-16T00:19:44;12.20;1.00
9167;DHT22;4618;48.818;9.088;2023-05-16T00:22:11;12.10;91.60
9167;DHT22;4618;48.818;9.088;2023-05-16T00:24:37;12.00;99.90
9167;DHT22;4618;48.818;9.088;2023-05-16T00:27:02;11.90;99.90
9167;DHT22;4618;48.818;9.088;2023-05-16T00:29:31;11.80;99.90
9167;DHT22;4618;48.818;9.088;2023-05-16T00:31:56;11.80;99.90
9167;DHT22;4618;48.818;9.088;2023-05-16T00:34:21;11.80;1.00
9167;DHT22;4618;48.818;9.088;2023-05-16T00:36:48;11.60;1.00
9167;DHT22;4618;48.818;9.088;2023-05-16T00:39:14;11.60;1.00
9167;DHT22;4618;48.818;9.088;2023-05-16T00:41:40;11.50;1.00
9167;DHT22;4618;48.818;9.088;2023-05-16T00:44:05;11.50;99.90
9167;DHT22;4618;48.818;9.088;2023-05-16T00:46:31;11.50;16.70
9167;DHT22;4618;48.818;9.088;2023-05-16T00:48:56;11.50;1.00
9167;DHT22;4618;48.818;9.088;2023-05-16T00:51:22;11.50;1.00
9167;DHT22;4618;48.818;9.088;2023-05-16T00:53:48;11.50;39.80
9167;DHT22;4618;48.818;9.088;2023-05-16T00:56:13;11.50;1.00
9167;DHT22;4618;48.818;9.088;2023-05-16T00:58:39;11.50;1.00
9167;DHT22;4618;48.818;9.088;2023-05-16T01:01:05;11.40;1.00
9167;DHT22;4618;48.818;9.088;2023-05-16T01:03:32;11.40;1.00
9167;DHT22;4618;48.818;9.088;2023-05-16T01:05:58;11.20;20.60
9167;DHT22;4618;48.818;9.088;2023-05-16T01:08:24;11.20;99.90
9167;DHT22;4618;48.818;9.088;2023-05-16T01:10:56;11.10;99.90
9167;DHT22;4618;48.818;9.088;2023-05-16T01:13:26;11.10;99.90
9167;DHT22;4618;48.818;9.088;2023-05-16T01:15:59;11.10;99.90
9167;DHT22;4618;48.818;9.088;2023-05-16T01:18:50;11.00;99.90
9167;DHT22;4618;48.818;9.088;2023-05-16T01:21:18;11.00;1.00
9167;DHT22;4618;48.818;9.088;2023-05-16T01:23:50;11.00;1.00
9167;DHT22;4618;48.818;9.088;2023-05-16T01:26:17;10.90;1.00
9167;DHT22;4618;48.818;9.088;2023-05-16T01:28:43;10.90;1.00
9167;DHT22;4618;48.818;9.088;2023-05-16T01:31:09;10.80;1.00
9167;DHT22;4618;48.818;9.088;2023-05-16T01:33:35;10.80;1.00
9167;DHT22;4618;48.818;9.088;2023-05-16T01:36:16;10.70;99.90
9167;DHT22;4618;48.818;9.088;2023-05-16T01:38:44;10.70;99.90
9167;DHT22;4618;48.818;9.088;2023-05-16T01:41:20;10.70;99.90
9167;DHT22;4618;48.818;9.088;2023-05-16T01:43:50;10.70;99.90
9167;DHT22;4618;48.818;9.088;2023-05-16T01:46:20;10.60;99.90
9167;DHT22;4618;48.818;9.088;2023-05-16T01:48:51;10.70;99.90
9167;DHT22;4618;48.818;9.088;2023-05-16T01:51:17;10.60;99.90
9167;DHT22;4618;48.818;9.088;2023-05-16T01:53:45;10.60;99.90
9167;DHT22;4618;48.818;9.088;2023-05-16T01:56:12;10.50;99.90
9167;DHT22;4618;48.818;9.088;2023-05-16T01:58:39;10.50;99.90
9167;DHT22;4618;48.818;9.088;2023-05-16T02:01:06;10.50;99.90
9167;DHT22;4618;48.818;9.088;2023-05-16T02:03:31;10.50;99.90
9167;DHT22;4618;48.818;9.088;2023-05-16T02:05:57;10.50;99.90
9167;DHT22;4618;48.818;9.088;2023-05-16T02:08:23;10.50;99.90
9167;DHT22;4618;48.818;9.088;2023-05-16T02:10:48;10.50;99.90
9167;DHT22;4618;48.818;9.088;2023-05-16T02:13:14;10.50;99.90
9167;DHT22;4618;48.818;9.088;2023-05-16T02:15:39;10.50;99.90
9167;DHT22;4618;48.818;9.088;2023-05-16T02:18:05;10.60;99.90
9167;DHT22;4618;48.818;9.088;2023-05-16T02:20:30;10.60;70.40
9167;DHT22;4618;48.818;9.088;2023-05-16T02:22:56;10.70;78.20
9167;DHT22;4618;48.818;9.088;2023-05-16T02:25:21;10.60;1.00
9167;DHT22;4618;48.818;9.088;2023-05-16T02:27:47;10.70;1.00
9167;DHT22;4618;48.818;9.088;2023-05-16T02:30:13;10.70;1.00
9167;DHT22;4618;48.818;9.088;2023-05-16T02:32:39;10.60;1.00
9167;DHT22;4618;48.818;9.088;2023-05-16T02:35:04;10.70;1.00
9167;DHT22;4618;48.818;9.088;2023-05-16T02:37:30;10.60;1.00
9167;DHT22;4618;48.818;9.088;2023-05-16T02:39:55;10.60;53.50
9167;DHT22;4618;48.818;9.088;2023-05-16T02:42:21;10.60;99.90
9167;DHT22;4618;48.818;9.088;2023-05-16T02:44:46;10.60;99.90
9167;DHT22;4618;48.818;9.088;2023-05-16T02:47:12;10.70;50.10
9167;DHT22;4618;48.818;9.088;2023-05-16T02:49:37;10.60;1.00
9167;DHT22;4618;48.818;9.088;2023-05-16T02:52:03;10.60;43.60
9167;DHT22;4618;48.818;9.088;2023-05-16T02:54:28;10.60;45.00
9167;DHT22;4618;48.818;9.088;2023-05-16T02:56:54;10.70;99.90
9167;DHT22;4618;48.818;9.088;2023-05-16T02:59:19;10.60;42.60
9167;DHT22;4618;48.818;9.088;2023-05-16T03:01:45;10.70;99.90
9167;DHT22;4618;48.818;9.088;2023-05-16T03:04:10;10.70;99.90
9167;DHT22;4618;48.818;9.088;2023-05-16T03:06:35;10.70;99.90
9167;DHT22;4618;48.818;9.088;2023-05-16T03:09:01;10.70;99.90
9167;DHT22;4618;48.818;9.088;2023-05-16T03:11:27;10.70;99.90
9167;DHT22;4618;48.818;9.088;2023-05-16T03:13:53;10.70;99.90
9167;DHT22;4618;48.818;9.088;2023-05-16T03:16:19;10.80;99.90
9167;DHT22;4618;48.818;9.088;2023-05-16T03:18:44;10.80;99.90
9167;DHT22;4618;48.818;9.088;2023-05-16T03:21:10;10.90;99.90
9167;DHT22;4618;48.818;9.088;2023-05-16T03:23:35;10.90;99.90
9167;DHT22;4618;48.818;9.088;2023-05-16T03:26:00;10.90;45.60
9167;DHT22;4618;48.818;9.088;2023-05-16T03:28:26;10.90;99.90
9167;DHT22;4618;48.818;9.088;2023-05-16T03:30:52;10.90;99.90
9167;DHT22;4618;48.818;9.088;2023-05-16T03:33:17;10.90;99.90
9167;DHT22;4618;48.818;9.088;2023-05-16T03:35:43;10.90;99.90
9167;DHT22;4618;48.818;9.088;2023-05-16T03:38:09;10.90;99.90
9167;DHT22;4618;48.818;9.088;2023-05-16T03:40:34;11.00;99.90
9167;DHT22;4618;48.818;9.088;2023-05-16T03:43:00;10.90;99.90
9167;DHT22;4618;48.818;9.088;2023-05-16T03:45:25;10.90;99.90
9167;DHT22;4618;48.818;9.088;2023-05-16T03:47:51;11.00;99.90
9167;DHT22;4618;48.818;9.088;2023-05-16T03:50:16;11.00;99.70
9167;DHT22;4618;48.818;9.088;2023-05-16T03:52:42;11.00;99.90
9167;DHT22;4618;48.818;9.088;2023-05-16T03:55:08;11.10;99.90
9167;DHT22;4618;48.818;9.088;2023-05-16T03:57:34;11.10;96.40
9167;DHT22;4618;48.818;9.088;2023-05-16T04:00:00;11.10;30.10
9167;DHT22;4618;48.818;9.088;2023-05-16T04:02:26;11.10;1.00
9167;DHT22;4618;48.818;9.088;2023-05-16T04:04:51;11.10;1.00
9167;DHT22;4618;48.818;9.088;2023-05-16T04:07:17;11.20;1.00
9167;DHT22;4618;48.818;9.088;2023-05-16T04:09:42;11.10;1.00
9167;DHT22;4618;48.818;9.088;2023-05-16T04:12:08;11.20;1.00
9167;DHT22;4618;48.818;9.088;2023-05-16T04:14:33;11.20;1.00
9167;DHT22;4618;48.818;9.088;2023-05-16T04:16:59;11.20;1.00
9167;DHT22;4618;48.818;9.088;2023-05-16T04:19:25;11.20;1.00
9167;DHT22;4618;48.818;9.088;2023-05-16T04:21:51;11.30;1.00
9167;DHT22;4618;48.818;9.088;2023-05-16T04:24:16;11.30;1.00
9167;DHT22;4618;48.818;9.088;2023-05-16T04:26:42;11.30;1.00
9167;DHT22;4618;48.818;9.088;2023-05-16T04:29:07;11.30;1.00
9167;DHT22;4618;48.818;9.088;2023-05-16T04:31:33;11.40;1.00
9167;DHT22;4618;48.818;9.088;2023-05-16T04:33:59;11.40;1.00
9167;DHT22;4618;48.818;9.088;2023-05-16T04:36:24;11.40;1.00
9167;DHT22;4618;48.818;9.088;2023-05-16T04:38:54;11.40;1.00
9167;DHT22;4618;48.818;9.088;2023-05-16T04:41:20;11.30;1.00
9167;DHT22;4618;48.818;9.088;2023-05-16T04:43:47;11.40;1.00
9167;DHT22;4618;48.818;9.088;2023-05-16T04:46:12;11.40;1.00
9167;DHT22;4618;48.818;9.088;2023-05-16T04:48:39;11.40;1.00
9167;DHT22;4618;48.818;9.088;2023-05-16T04:51:05;11.50;1.00
9167;DHT22;4618;48.818;9.088;2023-05-16T04:53:31;11.50;1.00
9167;DHT22;4618;48.818;9.088;2023-05-16T04:55:56;11.60;1.00
9167;DHT22;4618;48.818;9.088;2023-05-16T04:58:22;11.60;99.90
9167;DHT22;4618;48.818;9.088;2023-05-16T05:00:49;11.70;99.90
9167;DHT22;4618;48.818;9.088;2023-05-16T05:03:15;11.70;99.90
9167;DHT22;4618;48.818;9.088;2023-05-16T05:05:41;11.70;99.90
9167;DHT22;4618;48.818;9.088;2023-05-16T05:08:06;11.80;99.90
9167;DHT22;4618;48.818;9.088;2023-05-16T05:10:32;11.80;99.90
9167;DHT22;4618;48.818;9.088;2023-05-16T05:12:57;11.80;99.90
9167;DHT22;4618;48.818;9.088;2023-05-16T05:15:23;11.80;99.90
9167;DHT22;4618;48.818;9.088;2023-05-16T05:17:48;11.80;99.90
9167;DHT22;4618;48.818;9.088;2023-05-16T05:20:14;11.80;99.90
9167;DHT22;4618;48.818;9.088;2023-05-16T05:22:39;11.70;99.90
9167;DHT22;4618;48.818;9.088;2023-05-16T05:25:05;11.70;99.90
9167;DHT22;4618;48.818;9.088;2023-05-16T05:27:31;11.70;99.90
9167;DHT22;4618;48.818;9.088;2023-05-16T05:29:56;11.70;99.90
9167;DHT22;4618;48.818;9.088;2023-05-16T05:32:22;11.60;99.90
9167;DHT22;4618;48.818;9.088;2023-05-16T05:34:47;11.60;99.90
9167;DHT22;4618;48.818;9.088;2023-05-16T05:37:13;11.60;99.90
9167;DHT22;4618;48.818;9.088;2023-05-16T05:39:39;11.60;99.90
9167;DHT22;4618;48.818;9.088;2023-05-16T05:42:04;11.60;99.90
9167;DHT22;4618;48.818;9.088;2023-05-16T05:44:30;11.60;99.90
9167;DHT22;4618;48.818;9.088;2023-05-16T05:46:56;11.70;99.90
9167;DHT22;4618;48.818;9.088;2023-05-16T05:49:22;11.70;1.00
9167;DHT22;4618;48.818;9.088;2023-05-16T05:51:48;11.80;99.90
9167;DHT22;4618;48.818;9.088;2023-05-16T05:54:16;11.80;99.90
9167;DHT22;4618;48.818;9.088;2023-05-16T05:56:42;11.80;99.90
9167;DHT22;4618;48.818;9.088;2023-05-16T05:59:07;11.80;99.90
9167;DHT22;4618;48.818;9.088;2023-05-16T06:01:33;11.80;99.90
9167;DHT22;4618;48.818;9.088;2023-05-16T06:03:58;11.90;99.90
9167;DHT22;4618;48.818;9.088;2023-05-16T06:09:15;12.00;1.00
9167;DHT22;4618;48.818;9.088;2023-05-16T06:11:41;12.00;1.00
9167;DHT22;4618;48.818;9.088;2023-05-16T06:14:07;12.10;21.60
9167;DHT22;4618;48.818;9.088;2023-05-16T06:16:33;12.10;1.00
9167;DHT22;4618;48.818;9.088;2023-05-16T06:18:58;12.20;1.00
9167;DHT22;4618;48.818;9.088;2023-05-16T06:21:24;12.30;99.90
9167;DHT22;4618;48.818;9.088;2023-05-16T06:23:49;12.30;99.90
9167;DHT22;4618;48.818;9.088;2023-05-16T06:26:15;12.40;99.90
9167;DHT22;4618;48.818;9.088;2023-05-16T06:28:40;12.40;99.90
9167;DHT22;4618;48.818;9.088;2023-05-16T06:31:05;12.50;99.90
9167;DHT22;4618;48.818;9.088;2023-05-16T06:33:31;12.50;97.20
9167;DHT22;4618;48.818;9.088;2023-05-16T06:35:56;12.50;84.90
9167;DHT22;4618;48.818;9.088;2023-05-16T06:38:22;12.60;1.00
9167;DHT22;4618;48.818;9.088;2023-05-16T06:40:47;12.60;1.00
9167;DHT22;4618;48.818;9.088;2023-05-16T06:43:13;12.60;29.80
9167;DHT22;4618;48.818;9.088;2023-05-16T06:45:39;12.60;53.00
9167;DHT22;4618;48.818;9.088;2023-05-16T06:48:05;12.60;17.50
9167;DHT22;4618;48.818;9.088;2023-05-16T06:50:31;12.60;1.00
9167;DHT22;4618;48.818;9.088;2023-05-16T06:52:57;12.50;17.20
9167;DHT22;4618;48.818;9.088;2023-05-16T06:55:22;12.60;99.90
9167;DHT22;4618;48.818;9.088;2023-05-16T06:57:48;12.50;99.90
9167;DHT22;4618;48.818;9.088;2023-05-16T07:00:14;12.50;99.90
9167;DHT22;4618;48.818;9.088;2023-05-16T07:02:39;12.40;99.90
9167;DHT22;4618;48.818;9.088;2023-05-16T07:05:05;12.30;99.90
9167;DHT22;4618;48.818;9.088;2023-05-16T07:07:31;12.20;99.90
9167;DHT22;4618;48.818;9.088;2023-05-16T07:09:56;12.20;99.90
9167;DHT22;4618;48.818;9.088;2023-05-16T07:12:21;12.10;99.90
9167;DHT22;4618;48.818;9.088;2023-05-16T07:14:47;12.20;1.00
9167;DHT22;4618;48.818;9.088;2023-05-16T07:17:12;12.10;1.00
9167;DHT22;4618;48.818;9.088;2023-05-16T07:19:38;12.10;1.00
9167;DHT22;4618;48.818;9.088;2023-05-16T07:22:03;12.10;99.90
9167;DHT22;4618;48.818;9.088;2023-05-16T07:24:29;12.10;99.90
9167;DHT22;4618;48.818;9.088;2023-05-16T07:26:54;12.10;1.00
9167;DHT22;4618;48.818;9.088;2023-05-16T07:29:20;12.20;99.90
9167;DHT22;4618;48.818;9.088;2023-05-16T07:31:45;12.20;99.90
9167;DHT22;4618;48.818;9.088;2023-05-16T07:34:12;12.10;5.30
9167;DHT22;4618;48.818;9.088;2023-05-16T07:36:37;12.20;1.00
9167;DHT22;4618;48.818;9.088;2023-05-16T07:39:03;12.10;99.90
9167;DHT22;4618;48.818;9.088;2023-05-16T07:41:29;12.10;99.90
9167;DHT22;4618;48.818;9.088;2023-05-16T07:43:55;12.10;99.90
9167;DHT22;4618;48.818;9.088;2023-05-16T07:46:20;12.10;99.90
9167;DHT22;4618;48.818;9.088;2023-05-16T07:48:46;12.20;99.90
9167;DHT22;4618;48.818;9.088;2023-05-16T07:51:11;12.40;21.20
9167;DHT22;4618;48.818;9.088;2023-05-16T07:53:36;12.60;1.00
9167;DHT22;4618;48.818;9.088;2023-05-16T07:56:02;12.70;1.00
9167;DHT22;4618;48.818;9.088;2023-05-16T07:58:28;12.80;1.00
9167;DHT22;4618;48.818;9.088;2023-05-16T08:00:53;12.80;99.90
9167;DHT22;4618;48.818;9.088;2023-05-16T08:03:19;12.70;99.90
9167;DHT22;4618;48.818;9.088;2023-05-16T08:05:44;12.60;1.00
9167;DHT22;4618;48.818;9.088;2023-05-16T08:08:10;12.60;24.40
9167;DHT22;4618;48.818;9.088;2023-05-16T08:10:35;12.60;16.30
9167;DHT22;4618;48.818;9.088;2023-05-16T08:13:01;12.60;76.50
9167;DHT22;4618;48.818;9.088;2023-05-16T08:15:26;12.50;1.00
9167;DHT22;4618;48.818;9.088;2023-05-16T08:17:55;12.40;97.20
9167;DHT22;4618;48.818;9.088;2023-05-16T08:20:21;12.30;99.90
9167;DHT22;4618;48.818;9.088;2023-05-16T08:22:46;12.20;99.90
9167;DHT22;4618;48.818;9.088;2023-05-16T08:25:12;12.10;99.90
9167;DHT22;4618;48.818;9.088;2023-05-16T08:27:37;12.10;1.00
9167;DHT22;4618;48.818;9.088;2023-05-16T08:30:03;12.10;1.00
9167;DHT22;4618;48.818;9.088;2023-05-16T08:32:29;12.00;99.90
9167;DHT22;4618;48.818;9.088;2023-05-16T08:34:54;12.00;99.90
9167;DHT22;4618;48.818;9.088;2023-05-16T08:37:20;12.00;99.90
9167;DHT22;4618;48.818;9.088;2023-05-16T08:39:45;12.10;99.90
9167;DHT22;4618;48.818;9.088;2023-05-16T08:42:11;12.10;99.90
9167;DHT22;4618;48.818;9.088;2023-05-16T08:44:36;12.10;92.40
9167;DHT22;4618;48.818;9.088;2023-05-16T08:47:05;12.10;22.50
9167;DHT22;4618;48.818;9.088;2023-05-16T08:49:31;12.20;29.20
9167;DHT22;4618;48.818;9.088;2023-05-16T08:51:58;12.20;99.90
9167;DHT22;4618;48.818;9.088;2023-05-16T08:54:24;12.50;99.90
9167;DHT22;4618;48.818;9.088;2023-05-16T08:56:51;12.60;1.00
9167;DHT22;4618;48.818;9.088;2023-05-16T08:59:17;12.70;1.00
9167;DHT22;4618;48.818;9.088;2023-05-16T09:01:43;12.80;99.90
9167;DHT22;4618;48.818;9.088;2023-05-16T09:04:08;12.90;99.90
9167;DHT22;4618;48.818;9.088;2023-05-16T09:06:35;13.00;99.90
9167;DHT22;4618;48.818;9.088;2023-05-16T09:09:00;13.10;99.90
9167;DHT22;4618;48.818;9.088;2023-05-16T09:11:27;13.20;1.00
9167;DHT22;4618;48.818;9.088;2023-05-16T09:13:52;13.20;1.00
9167;DHT22;4618;48.818;9.088;2023-05-16T09:16:18;13.30;99.90
9167;DHT22;4618;48.818;9.088;2023-05-16T09:18:45;13.50;99.90
9167;DHT22;4618;48.818;9.088;2023-05-16T09:21:11;13.60;1.00
9167;DHT22;4618;48.818;9.088;2023-05-16T09:23:36;13.60;1.00
9167;DHT22;4618;48.818;9.088;2023-05-16T09:26:02;13.70;1.00
9167;DHT22;4618;48.818;9.088;2023-05-16T09:28:29;13.70;1.00
9167;DHT22;4618;48.818;9.088;2023-05-16T09:30:55;13.80;1.00
9167;DHT22;4618;48.818;9.088;2023-05-16T09:33:23;13.90;99.90
9167;DHT22;4618;48.818;9.088;2023-05-16T09:35:58;13.90;99.90
9167;DHT22;4618;48.818;9.088;2023-05-16T09:38:24;14.10;99.90
9167;DHT22;4618;48.818;9.088;2023-05-16T09:40:50;14.40;1.00
9167;DHT22;4618;48.818;9.088;2023-05-16T09:43:16;14.30;1.00
9167;DHT22;4618;48.818;9.088;2023-05-16T09:45:45;14.40;1.00
9167;DHT22;4618;48.818;9.088;2023-05-16T09:48:12;14.50;1.00
9167;DHT22;4618;48.818;9.088;2023-05-16T09:50:38;14.40;1.00
9167;DHT22;4618;48.818;9.088;2023-05-16T09:53:05;14.40;1.00
9167;DHT22;4618;48.818;9.088;2023-05-16T09:55:31;14.30;1.00
9167;DHT22;4618;48.818;9.088;2023-05-16T09:57:57;14.10;1.00
9167;DHT22;4618;48.818;9.088;2023-05-16T10:00:22;14.10;1.00
9167;DHT22;4618;48.818;9.088;2023-05-16T10:02:53;14.10;1.00
9167;DHT22;4618;48.818;9.088;2023-05-16T10:05:21;14.10;99.90
9167;DHT22;4618;48.818;9.088;2023-05-16T10:07:46;14.10;1.00
9167;DHT22;4618;48.818;9.088;2023-05-16T10:10:12;13.80;1.00
9167;DHT22;4618;48.818;9.088;2023-05-16T10:12:38;13.50;1.00
9167;DHT22;4618;48.818;9.088;2023-05-16T10:15:05;13.30;1.00
9167;DHT22;4618;48.818;9.088;2023-05-16T10:17:32;13.20;1.00
9167;DHT22;4618;48.818;9.088;2023-05-16T10:20:00;13.20;27.40
9167;DHT22;4618;48.818;9.088;2023-05-16T10:22:26;13.30;99.90
9167;DHT22;4618;48.818;9.088;2023-05-16T10:27:30;13.60;1.00
9167;DHT22;4618;48.818;9.088;2023-05-16T10:29:56;13.50;99.90
9167;DHT22;4618;48.818;9.088;2023-05-16T10:32:23;13.60;99.90
9167;DHT22;4618;48.818;9.088;2023-05-16T10:34:49;13.70;99.90
9167;DHT22;4618;48.818;9.088;2023-05-16T10:37:15;13.80;60.10
9167;DHT22;4618;48.818;9.088;2023-05-16T10:39:40;13.70;99.90
9167;DHT22;4618;48.818;9.088;2023-05-16T10:42:06;13.50;99.90
9167;DHT22;4618;48.818;9.088;2023-05-16T10:44:32;13.30;99.90
9167;DHT22;4618;48.818;9.088;2023-05-16T10:47:00;13.10;1.00
9167;DHT22;4618;48.818;9.088;2023-05-16T10:49:29;12.90;83.70
9167;DHT22;4618;48.818;9.088;2023-05-16T10:54:32;12.60;1.00
9167;DHT22;4618;48.818;9.088;2023-05-16T10:56:58;12.60;1.00
9167;DHT22;4618;48.818;9.088;2023-05-16T10:59:28;12.50;1.00
9167;DHT22;4618;48.818;9.088;2023-05-16T11:01:54;12.50;10.70
9167;DHT22;4618;48.818;9.088;2023-05-16T11:04:20;12.60;1.00
9167;DHT22;4618;48.818;9.088;2023-05-16T11:06:48;12.60;1.00
9167;DHT22;4618;48.818;9.088;2023-05-16T11:09:21;12.50;1.00
9167;DHT22;4618;48.818;9.088;2023-05-16T11:12:02;12.40;1.00
9167;DHT22;4618;48.818;9.088;2023-05-16T11:17:09;12.20;99.90
9167;DHT22;4618;48.818;9.088;2023-05-16T11:24:30;12.00;1.00
9167;DHT22;4618;48.818;9.088;2023-05-16T11:26:56;12.00;1.00
9167;DHT22;4618;48.818;9.088;2023-05-16T11:29:23;12.00;1.00
9167;DHT22;4618;48.818;9.088;2023-05-16T11:31:48;12.20;99.90
9167;DHT22;4618;48.818;9.088;2023-05-16T11:34:14;12.30;99.90
9167;DHT22;4618;48.818;9.088;2023-05-16T11:36:40;12.50;99.90
9167;DHT22;4618;48.818;9.088;2023-05-16T11:39:06;12.60;85.10
9167;DHT22;4618;48.818;9.088;2023-05-16T11:41:33;12.80;99.90
9167;DHT22;4618;48.818;9.088;2023-05-16T11:43:59;12.80;1.00
9167;DHT22;4618;48.818;9.088;2023-05-16T11:46:25;13.00;1.00
9167;DHT22;4618;48.818;9.088;2023-05-16T11:48:51;12.90;99.90
9167;DHT22;4618;48.818;9.088;2023-05-16T11:51:17;13.00;99.90
9167;DHT22;4618;48.818;9.088;2023-05-16T11:53:45;13.10;99.90
9167;DHT22;4618;48.818;9.088;2023-05-16T11:56:11;13.00;1.00
9167;DHT22;4618;48.818;9.088;2023-05-16T11:58:37;13.00;99.90
9167;DHT22;4618;48.818;9.088;2023-05-16T12:01:03;13.00;99.90
9167;DHT22;4618;48.818;9.088;2023-05-16T12:03:29;13.20;99.90
9167;DHT22;4618;48.818;9.088;2023-05-16T12:05:57;13.20;20.30
9167;DHT22;4618;48.818;9.088;2023-05-16T12:08:23;13.30;99.90
9167;DHT22;4618;48.818;9.088;2023-05-16T12:10:49;13.60;1.00
9167;DHT22;4618;48.818;9.088;2023-05-16T12:13:16;13.80;1.00
9167;DHT22;4618;48.818;9.088;2023-05-16T12:15:42;13.80;99.90
9167;DHT22;4618;48.818;9.088;2023-05-16T12:18:08;13.80;12.30
9167;DHT22;4618;48.818;9.088;2023-05-16T12:20:34;13.70;1.00
9167;DHT22;4618;48.818;9.088;2023-05-16T12:22:59;13.60;99.90
9167;DHT22;4618;48.818;9.088;2023-05-16T12:25:29;13.60;99.90
9167;DHT22;4618;48.818;9.088;2023-05-16T12:27:57;13.70;99.90
9167;DHT22;4618;48.818;9.088;2023-05-16T12:30:23;13.70;71.10
9167;DHT22;4618;48.818;9.088;2023-05-16T12:35:24;13.60;1.00
9167;DHT22;4618;48.818;9.088;2023-05-16T12:37:49;13.80;53.40
9167;DHT22;4618;48.818;9.088;2023-05-16T12:40:18;14.00;1.00
9167;DHT22;4618;48.818;9.088;2023-05-16T12:42:47;13.80;27.70
9167;DHT22;4618;48.818;9.088;2023-05-16T12:45:14;13.30;99.90
9167;DHT22;4618;48.818;9.088;2023-05-16T12:47:43;13.00;1.00
9167;DHT22;4618;48.818;9.088;2023-05-16T12:50:09;13.00;1.00
9167;DHT22;4618;48.818;9.088;2023-05-16T12:52:37;13.10;1.00
9167;DHT22;4618;48.818;9.088;2023-05-16T12:55:02;13.10;1.00
9167;DHT22;4618;48.818;9.088;2023-05-16T12:57:28;13.20;1.00
9167;DHT22;4618;48.818;9.088;2023-05-16T12:59:53;13.00;99.90
9167;DHT22;4618;48.818;9.088;2023-05-16T13:02:19;12.70;99.90
9167;DHT22;4618;48.818;9.088;2023-05-16T13:04:46;12.60;1.00
9167;DHT22;4618;48.818;9.088;2023-05-16T13:07:11;12.50;1.00
9167;DHT22;4618;48.818;9.088;2023-05-16T13:09:37;12.30;1.00
9167;DHT22;4618;48.818;9.088;2023-05-16T13:12:02;12.20;1.00
9167;DHT22;4618;48.818;9.088;2023-05-16T13:14:28;12.10;1.00
9167;DHT22;4618;48.818;9.088;2023-05-16T13:16:54;12.00;1.00
9167;DHT22;4618;48.818;9.088;2023-05-16T13:19:19;11.90;1.00
9167;DHT22;4618;48.818;9.088;2023-05-16T13:21:47;11.80;1.00
9167;DHT22;4618;48.818;9.088;2023-05-16T13:24:12;11.80;1.00
9167;DHT22;4618;48.818;9.088;2023-05-16T13:26:38;11.80;1.00
9167;DHT22;4618;48.818;9.088;2023-05-16T13:29:03;11.80;1.00
9167;DHT22;4618;48.818;9.088;2023-05-16T13:31:29;11.80;1.00
9167;DHT22;4618;48.818;9.088;2023-05-16T13:33:55;11.70;43.30
9167;DHT22;4618;48.818;9.088;2023-05-16T13:36:20;11.70;1.00
9167;DHT22;4618;48.818;9.088;2023-05-16T13:38:46;11.80;1.00
9167;DHT22;4618;48.818;9.088;2023-05-16T13:41:11;11.80;73.50
9167;DHT22;4618;48.818;9.088;2023-05-16T13:43:36;11.90;99.90
9167;DHT22;4618;48.818;9.088;2023-05-16T13:46:02;12.00;1.00
9167;DHT22;4618;48.818;9.088;2023-05-16T13:48:27;12.00;1.00
9167;DHT22;4618;48.818;9.088;2023-05-16T13:50:53;12.10;1.00
9167;DHT22;4618;48.818;9.088;2023-05-16T13:53:19;12.00;1.00
9167;DHT22;4618;48.818;9.088;2023-05-16T13:55:45;12.10;1.00
9167;DHT22;4618;48.818;9.088;2023-05-16T13:58:10;12.10;1.00
9167;DHT22;4618;48.818;9.088;2023-05-16T14:00:36;12.20;1.00
9167;DHT22;4618;48.818;9.088;2023-05-16T14:03:01;12.30;99.90
9167;DHT22;4618;48.818;9.088;2023-05-16T14:05:27;12.40;99.90
9167;DHT22;4618;48.818;9.088;2023-05-16T14:07:53;12.50;99.90
9167;DHT22;4618;48.818;9.088;2023-05-16T14:10:18;12.60;99.90
9167;DHT22;4618;48.818;9.088;2023-05-16T14:12:44;12.70;99.90
9167;DHT22;4618;48.818;9.088;2023-05-16T14:15:09;12.80;13.90
9167;DHT22;4618;48.818;9.088;2023-05-16T14:17:35;12.80;68.60
9167;DHT22;4618;48.818;9.088;2023-05-16T14:20:01;12.80;15.30
9167;DHT22;4618;48.818;9.088;2023-05-16T14:22:26;12.90;1.00
9167;DHT22;4618;48.818;9.088;2023-05-16T14:24:52;13.00;1.00
9167;DHT22;4618;48.818;9.088;2023-05-16T14:27:18;13.00;99.90
9167;DHT22;4618;48.818;9.088;2023-05-16T14:29:43;13.10;99.90
9167;DHT22;4618;48.818;9.088;2023-05-16T14:32:09;13.00;99.90
9167;DHT22;4618;48.818;9.088;2023-05-16T14:34:35;13.00;99.90
9167;DHT22;4618;48.818;9.088;2023-05-16T14:37:01;13.10;99.90
9167;DHT22;4618;48.818;9.088;2023-05-16T14:39:26;13.20;99.90
9167;DHT22;4618;48.818;9.088;2023-05-16T14:41:51;13.30;15.10
9167;DHT22;4618;48.818;9.088;2023-05-16T14:44:17;13.50;99.90
9167;DHT22;4618;48.818;9.088;2023-05-16T14:46:44;13.70;1.00
9167;DHT22;4618;48.818;9.088;2023-05-16T14:49:10;13.70;1.00
9167;DHT22;4618;48.818;9.088;2023-05-16T14:51:36;13.70;99.90
9167;DHT22;4618;48.818;9.088;2023-05-16T14:54:02;13.50;1.00
9167;DHT22;4618;48.818;9.088;2023-05-16T14:56:27;13.40;1.00
9167;DHT22;4618;48.818;9.088;2023-05-16T14:58:53;13.20;46.70
9167;DHT22;4618;48.818;9.088;2023-05-16T15:01:18;13.30;99.90
9167;DHT22;4618;48.818;9.088;2023-05-16T15:03:44;13.20;1.00
9167;DHT22;4618;48.818;9.088;2023-05-16T15:06:09;13.20;1.00
9167;DHT22;4618;48.818;9.088;2023-05-16T15:08:35;13.40;99.90
9167;DHT22;4618;48.818;9.088;2023-05-16T15:11:02;13.60;99.90
9167;DHT22;4618;48.818;9.088;2023-05-16T15:13:28;13.80;1.00
9167;DHT22;4618;48.818;9.088;2023-05-16T15:15:53;14.00;99.90
9167;DHT22;4618;48.818;9.088;2023-05-16T15:18:19;14.00;99.90
9167;DHT22;4618;48.818;9.088;2023-05-16T15:20:45;13.90;99.90
9167;DHT22;4618;48.818;9.088;2023-05-16T15:23:10;14.00;99.90
9167;DHT22;4618;48.818;9.088;2023-05-16T15:25:36;13.90;1.00
9167;DHT22;4618;48.818;9.088;2023-05-16T15:28:01;13.90;1.00
9167;DHT22;4618;48.818;9.088;2023-05-16T15:30:27;13.70;1.00
9167;DHT22;4618;48.818;9.088;2023-05-16T15:32:52;13.60;99.90
9167;DHT22;4618;48.818;9.088;2023-05-16T15:35:18;13.40;1.00
9167;DHT22;4618;48.818;9.088;2023-05-16T15:37:43;13.30;99.90
9167;DHT22;4618;48.818;9.088;2023-05-16T15:40:09;13.30;99.90
9167;DHT22;4618;48.818;9.088;2023-05-16T15:42:35;13.20;1.00
9167;DHT22;4618;48.818;9.088;2023-05-16T15:45:01;13.20;1.00
9167;DHT22;4618;48.818;9.088;2023-05-16T15:47:26;13.30;1.00
9167;DHT22;4618;48.818;9.088;2023-05-16T15:49:52;13.30;99.90
9167;DHT22;4618;48.818;9.088;2023-05-16T15:52:17;13.40;1.00
9167;DHT22;4618;48.818;9.088;2023-05-16T15:54:42;13.50;1.00
9167;DHT22;4618;48.818;9.088;2023-05-16T15:57:08;13.40;1.00
9167;DHT22;4618;48.818;9.088;2023-05-16T15:59:33;13.20;1.00
9167;DHT22;4618;48.818;9.088;2023-05-16T16:01:59;13.10;99.90
9167;DHT22;4618;48.818;9.088;2023-05-16T16:04:28;13.00;99.90
9167;DHT22;4618;48.818;9.088;2023-05-16T16:06:53;12.90;1.00
9167;DHT22;4618;48.818;9.088;2023-05-16T16:09:19;12.80;1.00
9167;DHT22;4618;48.818;9.088;2023-05-16T16:11:44;12.80;1.00
9167;DHT22;4618;48.818;9.088;2023-05-16T16:14:10;12.80;1.00
9167;DHT22;4618;48.818;9.088;2023-05-16T16:16:35;12.70;99.90
9167;DHT22;4618;48.818;9.088;2023-05-16T16:19:02;12.70;99.90